Time;durP1;ratioP1;P1;durP2;ratioP2;P2;SDS_P1;SDS_P2;PMS_P1;PMS_P2;Temp;Humidity;BMP_temperature;BMP_pressure;BME280_temperature;BME280_humidity;BME280_pressure;Samples;Min_cycle;Max_cycle;Signal;HPM_P1;HPM_P2
2024/04/07 00:00:39;;;;;;;5.45;2.50;;;15.20;99.90;;;;;;5069631;28;20131;-69
2024/04/07 00:03:05;;;;;;;5.63;2.10;;;15.20;99.90;;;;;;5070529;28;20044;-69
2024/04/07 00:05:31;;;;;;;8.18;2.22;;;15.30;99.90;;;;;;5070976;28;20037;-69
2024/04/07 00:07:57;;;;;;;7.07;2.30;;;15.30;99.90;;;;;;5070830;28;20041;-69
2024/04/07 00:10:22;;;;;;;8.50;2.58;;;15.20;99.90;;;;;;5071664;28;20040;-69
2024/04/07 00:12:48;;;;;;;4.78;2.30;;;15.30;99.90;;;;;;5073833;28;20032;-69
2024/04/07 00:15:14;;;;;;;6.30;2.17;;;15.30;99.90;;;;;;5074540;28;20415;-70
2024/04/07 00:17:39;;;;;;;11.07;2.30;;;15.30;99.90;;;;;;5073177;28;20039;-69
2024/04/07 00:20:05;;;;;;;5.90;2.53;;;15.20;99.90;;;;;;5072754;28;20036;-70
2024/04/07 00:22:31;;;;;;;6.85;2.35;;;15.30;99.90;;;;;;5073206;28;20446;-70
2024/04/07 00:24:57;;;;;;;7.50;2.17;;;15.30;99.90;;;;;;5072158;28;20048;-69
2024/04/07 00:27:23;;;;;;;7.25;2.05;;;15.30;99.90;;;;;;5072832;28;20036;-70
2024/04/07 00:29:50;;;;;;;3.80;2.00;;;15.30;99.90;;;;;;5074059;28;20412;-70
2024/04/07 00:32:16;;;;;;;5.03;1.88;;;15.40;99.90;;;;;;5073064;28;20040;-70
2024/04/07 00:34:44;;;;;;;8.65;1.75;;;15.40;99.90;;;;;;5072359;28;20047;-70
2024/04/07 00:37:10;;;;;;;6.05;1.92;;;15.50;99.90;;;;;;5073090;28;20506;-70
2024/04/07 00:39:36;;;;;;;6.05;2.10;;;15.50;99.90;;;;;;5073726;28;20040;-69
2024/04/07 00:42:01;;;;;;;4.75;1.85;;;15.60;99.90;;;;;;5072607;28;20058;-69
2024/04/07 00:44:27;;;;;;;6.50;2.33;;;15.70;99.90;;;;;;5073618;28;20062;-69
2024/04/07 00:46:53;;;;;;;4.20;2.17;;;15.70;99.90;;;;;;5072770;28;20500;-70
2024/04/07 00:49:19;;;;;;;5.60;1.70;;;15.80;99.90;;;;;;5072422;28;20123;-70
2024/04/07 00:51:45;;;;;;;5.13;2.25;;;15.90;99.90;;;;;;5073323;28;20507;-70
2024/04/07 00:54:12;;;;;;;2.97;1.52;;;15.80;99.90;;;;;;5072047;28;20036;-70
2024/04/07 00:56:38;;;;;;;4.97;1.90;;;15.90;99.90;;;;;;5073794;28;20399;-70
2024/04/07 00:59:06;;;;;;;6.03;1.60;;;15.90;99.90;;;;;;5072354;28;20047;-70
2024/04/07 01:01:32;;;;;;;7.28;1.88;;;16.00;99.90;;;;;;5072184;28;20036;-70
2024/04/07 01:03:58;;;;;;;10.73;2.00;;;15.90;99.90;;;;;;5073160;28;20072;-69
2024/04/07 01:06:24;;;;;;;4.03;2.25;;;16.00;99.90;;;;;;5073336;28;20071;-70
2024/04/07 01:08:52;;;;;;;5.53;1.85;;;15.90;99.90;;;;;;5072922;28;20040;-69
2024/04/07 01:11:17;;;;;;;4.97;1.77;;;16.00;99.90;;;;;;5071739;28;20040;-70
2024/04/07 01:13:43;;;;;;;6.30;2.03;;;16.00;99.90;;;;;;5071474;28;20040;-69
2024/04/07 01:16:08;;;;;;;8.70;3.03;;;16.00;99.90;;;;;;5071948;28;20562;-69
2024/04/07 01:18:34;;;;;;;5.65;1.90;;;16.00;99.90;;;;;;5071925;28;20051;-70
2024/04/07 01:21:00;;;;;;;4.80;1.85;;;16.00;99.90;;;;;;5072766;28;20040;-70
2024/04/07 01:23:25;;;;;;;11.23;2.35;;;16.00;99.90;;;;;;5072453;28;20040;-69
2024/04/07 01:25:51;;;;;;;8.35;2.05;;;16.10;99.90;;;;;;5073305;28;20567;-70
2024/04/07 01:28:16;;;;;;;6.53;2.00;;;16.10;99.90;;;;;;5071766;28;20518;-70
2024/04/07 01:30:42;;;;;;;3.80;1.70;;;16.10;99.90;;;;;;5071336;28;20080;-70
2024/04/07 01:33:08;;;;;;;7.30;1.75;;;16.10;99.90;;;;;;5071116;28;20127;-69
2024/04/07 01:35:34;;;;;;;4.82;1.77;;;16.10;99.90;;;;;;5072843;28;20036;-70
2024/04/07 01:38:01;;;;;;;7.22;2.30;;;16.20;99.90;;;;;;5071420;28;20036;-70
2024/04/07 01:40:27;;;;;;;12.35;2.20;;;16.20;99.90;;;;;;5071170;28;20059;-70
2024/04/07 01:42:52;;;;;;;5.03;2.03;;;16.20;99.90;;;;;;5072324;28;20036;-69
2024/04/07 01:45:19;;;;;;;4.53;1.83;;;16.30;99.90;;;;;;5071543;28;20063;-70
2024/04/07 01:47:45;;;;;;;8.18;2.10;;;16.30;99.90;;;;;;5071593;28;20040;-70
2024/04/07 01:50:11;;;;;;;9.88;2.00;;;16.30;99.90;;;;;;5072338;28;20526;-69
2024/04/07 01:52:37;;;;;;;6.07;2.40;;;16.30;99.90;;;;;;5072242;28;20048;-69
2024/04/07 01:55:03;;;;;;;8.95;2.20;;;16.30;99.90;;;;;;5072149;28;20037;-69
2024/04/07 01:57:28;;;;;;;3.83;1.35;;;16.30;99.90;;;;;;5072649;28;20131;-70
2024/04/07 01:59:55;;;;;;;5.95;1.88;;;16.20;99.90;;;;;;5072098;28;20068;-69
2024/04/07 02:02:21;;;;;;;6.68;1.70;;;16.30;99.90;;;;;;5072340;28;20050;-69
2024/04/07 02:04:47;;;;;;;4.18;1.55;;;16.20;99.90;;;;;;5070788;28;20075;-69
2024/04/07 02:07:13;;;;;;;7.03;1.67;;;16.20;99.90;;;;;;5070889;28;20102;-70
2024/04/07 02:09:38;;;;;;;6.18;1.70;;;16.20;99.90;;;;;;5072074;28;20086;-69
2024/04/07 02:12:04;;;;;;;5.97;1.48;;;16.20;99.90;;;;;;5071116;28;20041;-70
2024/04/07 02:14:31;;;;;;;5.85;1.85;;;16.10;99.90;;;;;;5070399;28;20044;-70
2024/04/07 02:16:57;;;;;;;7.47;1.75;;;16.00;99.90;;;;;;5071032;28;20040;-70
2024/04/07 02:19:22;;;;;;;4.75;1.48;;;15.90;99.90;;;;;;5072089;28;20032;-70
2024/04/07 02:21:48;;;;;;;7.65;2.08;;;15.80;99.90;;;;;;5070533;28;20128;-70
2024/04/07 02:24:13;;;;;;;4.78;1.55;;;15.80;99.90;;;;;;5070248;28;20032;-69
2024/04/07 02:26:39;;;;;;;4.85;1.48;;;15.70;99.90;;;;;;5072081;28;20090;-70
2024/04/07 02:29:05;;;;;;;10.23;2.58;;;15.60;99.90;;;;;;5070676;28;20041;-70
2024/04/07 02:31:30;;;;;;;4.05;1.17;;;15.60;99.90;;;;;;5071362;28;20412;-70
2024/04/07 02:33:56;;;;;;;6.57;1.52;;;15.50;99.90;;;;;;5069964;28;20111;-69
2024/04/07 02:36:22;;;;;;;8.35;1.45;;;15.40;99.90;;;;;;5071553;28;20039;-70
2024/04/07 02:38:47;;;;;;;4.90;1.63;;;15.40;99.90;;;;;;5072038;28;20166;-69
2024/04/07 02:41:15;;;;;;;10.13;1.45;;;15.40;99.90;;;;;;5070245;28;20036;-69
2024/04/07 02:43:41;;;;;;;6.25;1.30;;;15.40;99.90;;;;;;5069963;28;20091;-69
2024/04/07 02:48:51;;;;;;;4.40;1.52;;;15.40;99.90;;;;;;5071606;28;20044;-70
2024/04/07 02:51:17;;;;;;;5.13;1.55;;;15.30;99.90;;;;;;5071475;28;20119;-69
2024/04/07 02:53:42;;;;;;;5.43;1.27;;;15.20;99.90;;;;;;5070997;28;20435;-69
2024/04/07 02:56:08;;;;;;;4.40;1.27;;;15.20;99.90;;;;;;5071680;28;20074;-70
2024/04/07 02:58:34;;;;;;;4.55;1.52;;;15.10;99.90;;;;;;5070241;28;20037;-70
2024/04/07 03:01:07;;;;;;;4.03;0.95;;;15.10;99.90;;;;;;5070132;28;20123;-69
2024/04/07 03:03:33;;;;;;;2.63;0.73;;;15.10;99.90;;;;;;5070877;28;20094;-69
2024/04/07 03:06:04;;;;;;;8.10;0.95;;;15.10;99.90;;;;;;5070140;28;20041;-69
2024/04/07 03:08:29;;;;;;;3.78;0.68;;;15.00;99.90;;;;;;5071651;28;20090;-69
2024/04/07 03:10:59;;;;;;;3.22;1.02;;;15.00;99.90;;;;;;5071249;28;20044;-69
2024/04/07 03:13:25;;;;;;;4.15;0.80;;;14.90;99.90;;;;;;5070967;28;20098;-69
2024/04/07 03:15:50;;;;;;;5.70;1.20;;;14.90;99.90;;;;;;5071322;28;20036;-69
2024/04/07 03:18:16;;;;;;;1.65;0.70;;;14.90;99.90;;;;;;5071311;28;20032;-69
2024/04/07 03:20:42;;;;;;;3.58;0.77;;;14.80;99.90;;;;;;5071187;28;20081;-69
2024/04/07 03:23:08;;;;;;;2.53;0.90;;;14.80;99.90;;;;;;5070896;28;20036;-69
2024/04/07 03:25:33;;;;;;;3.03;0.70;;;14.80;99.90;;;;;;5071334;28;20041;-69
2024/04/07 03:27:59;;;;;;;3.83;0.77;;;14.80;99.90;;;;;;5070044;28;20044;-69
2024/04/07 03:30:24;;;;;;;2.88;0.70;;;14.80;99.90;;;;;;5070841;28;20045;-69
2024/04/07 03:32:50;;;;;;;3.00;0.80;;;14.70;99.90;;;;;;5064438;28;20094;-69
2024/04/07 03:35:16;;;;;;;2.60;0.90;;;14.70;99.90;;;;;;5061438;28;20538;-69
2024/04/07 03:37:41;;;;;;;2.03;0.80;;;14.70;99.90;;;;;;5069945;28;20098;-70
2024/04/07 03:40:08;;;;;;;3.25;0.88;;;14.60;99.90;;;;;;5052969;28;20070;-70
2024/04/07 03:42:33;;;;;;;1.70;0.70;;;14.50;99.90;;;;;;5070130;28;20042;-69
2024/04/07 03:44:59;;;;;;;3.08;0.77;;;14.50;99.90;;;;;;5071414;28;20037;-69
2024/04/07 03:47:25;;;;;;;2.55;0.70;;;14.30;99.90;;;;;;5075117;28;20127;-69
2024/04/07 03:49:50;;;;;;;2.60;0.60;;;14.30;99.90;;;;;;5074715;28;20032;-69
2024/04/07 03:52:16;;;;;;;3.20;0.70;;;14.30;99.90;;;;;;5073422;28;20491;-69
2024/04/07 03:54:42;;;;;;;2.65;0.68;;;14.20;99.90;;;;;;5074284;28;20477;-70
2024/04/07 03:57:08;;;;;;;2.17;0.60;;;14.20;99.90;;;;;;5074820;28;20040;-69
2024/04/07 03:59:34;;;;;;;4.13;0.80;;;14.20;99.90;;;;;;5062871;28;20102;-69
2024/04/07 04:02:03;;;;;;;3.83;0.50;;;14.10;99.90;;;;;;5058328;28;20032;-69
2024/04/07 04:04:29;;;;;;;2.97;0.80;;;14.10;99.90;;;;;;5065822;28;20072;-69
2024/04/07 04:06:54;;;;;;;4.93;0.68;;;14.00;99.90;;;;;;5073494;28;20448;-69
2024/04/07 04:09:21;;;;;;;1.60;0.50;;;14.00;99.90;;;;;;5074556;28;20400;-69
2024/04/07 04:11:46;;;;;;;2.10;0.60;;;14.00;99.90;;;;;;5073211;28;20099;-69
2024/04/07 04:14:12;;;;;;;2.28;0.50;;;13.90;99.90;;;;;;5073521;28;20029;-69
2024/04/07 04:16:37;;;;;;;2.38;0.80;;;13.90;99.90;;;;;;5074616;28;20044;-69
2024/04/07 04:19:03;;;;;;;2.25;0.60;;;13.90;99.90;;;;;;5074575;28;20032;-69
2024/04/07 04:21:29;;;;;;;3.55;0.77;;;13.90;99.90;;;;;;5074225;28;20491;-69
2024/04/07 04:23:55;;;;;;;3.80;0.90;;;13.90;99.90;;;;;;5073876;28;20043;-69
2024/04/07 04:26:20;;;;;;;3.75;0.93;;;13.90;99.90;;;;;;5074232;28;20036;-69
2024/04/07 04:28:46;;;;;;;1.73;0.80;;;13.90;99.90;;;;;;5072907;28;20465;-69
2024/04/07 04:31:12;;;;;;;5.18;0.93;;;13.80;99.90;;;;;;5074108;28;20032;-69
2024/04/07 04:33:37;;;;;;;3.45;1.10;;;13.80;99.90;;;;;;5073717;28;20484;-69
2024/04/07 04:36:11;;;;;;;4.65;0.88;;;13.80;99.90;;;;;;5073010;28;20041;-69
2024/04/07 04:38:37;;;;;;;6.63;1.52;;;13.90;99.90;;;;;;5074071;28;20488;-69
2024/04/07 04:41:03;;;;;;;3.40;0.80;;;13.80;99.90;;;;;;5073800;28;20044;-69
2024/04/07 04:43:28;;;;;;;7.45;1.20;;;13.80;99.90;;;;;;5073324;28;20047;-69
2024/04/07 04:46:06;;;;;;;3.10;1.48;;;13.80;99.90;;;;;;5074137;28;20135;-69
2024/04/07 04:48:36;;;;;;;2.60;1.20;;;13.80;99.90;;;;;;5074041;28;20116;-69
2024/04/07 04:51:03;;;;;;;3.13;0.90;;;13.80;99.90;;;;;;5073641;28;20045;-69
2024/04/07 04:53:29;;;;;;;5.40;1.33;;;13.80;99.90;;;;;;5055527;28;20095;-69
2024/04/07 04:56:02;;;;;;;6.05;2.33;;;13.70;99.90;;;;;;5073213;28;20128;-69
2024/04/07 04:58:29;;;;;;;6.43;2.13;;;13.70;99.90;;;;;;5073879;28;20036;-69
2024/04/07 05:00:56;;;;;;;3.42;1.00;;;13.70;99.90;;;;;;5072145;28;20072;-69
2024/04/07 05:03:21;;;;;;;3.35;1.00;;;13.70;99.90;;;;;;5071974;28;20076;-69
2024/04/07 05:05:47;;;;;;;3.97;1.20;;;13.70;99.90;;;;;;5072514;28;20512;-69
2024/04/07 05:08:13;;;;;;;2.05;0.75;;;13.70;99.90;;;;;;5072287;28;20048;-69
2024/04/07 05:10:39;;;;;;;5.25;1.15;;;13.70;99.90;;;;;;5073038;28;20084;-69
2024/04/07 05:13:05;;;;;;;2.15;0.75;;;13.60;99.90;;;;;;5072642;28;20099;-69
2024/04/07 05:15:31;;;;;;;1.23;0.60;;;13.70;99.90;;;;;;5055572;28;20064;-69
2024/04/07 05:17:56;;;;;;;3.72;0.80;;;13.60;99.90;;;;;;5073190;28;20518;-69
2024/04/07 05:20:22;;;;;;;6.82;1.23;;;13.70;99.90;;;;;;5072852;28;20051;-69
2024/04/07 05:22:50;;;;;;;1.90;0.77;;;13.70;99.90;;;;;;5072914;28;20044;-69
2024/04/07 05:25:16;;;;;;;3.13;0.88;;;13.70;99.90;;;;;;5073325;28;20082;-69
2024/04/07 05:27:41;;;;;;;2.95;0.70;;;13.70;99.90;;;;;;5071872;28;20071;-69
2024/04/07 05:30:08;;;;;;;3.85;1.20;;;13.70;99.90;;;;;;5072928;28;20036;-69
2024/04/07 05:32:34;;;;;;;2.33;0.70;;;13.70;99.90;;;;;;5072986;28;20040;-69
2024/04/07 05:35:00;;;;;;;3.83;0.90;;;13.70;99.90;;;;;;5071274;28;20093;-69
2024/04/07 05:37:28;;;;;;;2.60;0.60;;;13.70;99.90;;;;;;5071604;28;20045;-69
2024/04/07 05:39:54;;;;;;;2.03;0.50;;;13.70;99.90;;;;;;5072909;28;20089;-68
2024/04/07 05:42:19;;;;;;;4.85;0.80;;;13.70;99.90;;;;;;5073117;28;20036;-68
2024/04/07 05:44:45;;;;;;;1.50;0.50;;;13.60;99.90;;;;;;5072388;28;20648;-68
2024/04/07 05:47:11;;;;;;;1.02;0.43;;;13.70;99.90;;;;;;5071693;28;20561;-68
2024/04/07 05:49:41;;;;;;;1.85;0.52;;;13.60;99.90;;;;;;5072301;28;20079;-68
2024/04/07 05:52:07;;;;;;;3.65;0.65;;;13.60;99.90;;;;;;5071122;28;20086;-68
2024/04/07 05:54:33;;;;;;;1.42;0.52;;;13.60;99.90;;;;;;5072121;28;20040;-68
2024/04/07 05:56:58;;;;;;;1.63;0.60;;;13.60;99.90;;;;;;5072660;28;20037;-68
2024/04/07 05:59:24;;;;;;;3.13;1.35;;;13.60;99.90;;;;;;5072556;28;20043;-68
2024/04/07 06:01:51;;;;;;;2.08;0.68;;;13.60;99.90;;;;;;5070935;28;20119;-68
2024/04/07 06:04:16;;;;;;;2.85;0.63;;;13.70;99.90;;;;;;5071926;28;20116;-68
2024/04/07 06:06:42;;;;;;;1.98;0.65;;;13.70;99.90;;;;;;5070301;28;20554;-68
2024/04/07 06:09:08;;;;;;;1.27;0.50;;;13.70;99.90;;;;;;5071116;28;20484;-68
2024/04/07 06:11:34;;;;;;;1.38;0.47;;;13.80;99.90;;;;;;5072064;28;20063;-69
2024/04/07 06:13:59;;;;;;;3.10;1.00;;;13.80;99.90;;;;;;5071908;28;20042;-68
2024/04/07 06:16:26;;;;;;;1.83;0.47;;;13.90;99.90;;;;;;5071165;28;20452;-68
2024/04/07 06:18:52;;;;;;;2.83;0.45;;;14.00;99.90;;;;;;5072278;28;20094;-69
2024/04/07 06:21:19;;;;;;;3.05;0.45;;;14.00;99.90;;;;;;5071755;28;20036;-69
2024/04/07 06:23:45;;;;;;;2.85;0.63;;;14.00;99.90;;;;;;5071783;28;20040;-69
2024/04/07 06:26:10;;;;;;;2.35;0.50;;;14.10;99.90;;;;;;5070781;28;20062;-69
2024/04/07 06:28:36;;;;;;;1.60;0.50;;;14.10;99.90;;;;;;5072187;28;20051;-68
2024/04/07 06:31:03;;;;;;;1.35;0.50;;;14.10;99.90;;;;;;5070520;28;20041;-68
2024/04/07 06:33:29;;;;;;;2.97;0.50;;;14.10;99.90;;;;;;5071521;28;20033;-68
2024/04/07 06:35:55;;;;;;;1.05;0.43;;;14.10;99.90;;;;;;5071677;28;20101;-69
2024/04/07 06:38:21;;;;;;;4.72;0.60;;;14.10;99.90;;;;;;5070915;28;20040;-68
2024/04/07 06:40:46;;;;;;;1.70;0.90;;;14.10;99.90;;;;;;5071783;28;20056;-69
2024/04/07 06:43:12;;;;;;;6.05;0.63;;;14.20;99.90;;;;;;5070253;28;20040;-69
2024/04/07 06:45:38;;;;;;;2.55;0.60;;;14.40;99.90;;;;;;5071677;28;20495;-69
2024/04/07 06:48:04;;;;;;;1.77;0.70;;;14.50;99.90;;;;;;5071761;28;20036;-69
2024/04/07 06:50:32;;;;;;;3.10;0.50;;;14.40;99.90;;;;;;5071295;28;20036;-69
2024/04/07 06:52:58;;;;;;;3.53;0.90;;;14.30;99.90;;;;;;5070064;28;20390;-69
2024/04/07 06:55:24;;;;;;;3.20;1.48;;;14.30;99.90;;;;;;5071827;28;20112;-69
2024/04/07 06:57:49;;;;;;;1.52;0.63;;;14.20;99.90;;;;;;5070569;28;20032;-69
2024/04/07 07:00:15;;;;;;;2.67;0.70;;;14.20;99.90;;;;;;5071325;28;20040;-69
2024/04/07 07:02:41;;;;;;;2.58;0.68;;;14.30;99.90;;;;;;5071441;28;20041;-69
2024/04/07 07:05:08;;;;;;;3.60;0.77;;;14.70;99.90;;;;;;5069211;28;20033;-69
2024/04/07 07:07:33;;;;;;;3.22;0.50;;;15.30;99.90;;;;;;5071435;28;20090;-70
2024/04/07 07:09:59;;;;;;;1.15;0.60;;;15.80;99.90;;;;;;5070078;28;20041;-69
2024/04/07 07:12:24;;;;;;;3.25;0.50;;;16.00;99.90;;;;;;5070128;28;20044;-69
2024/04/07 07:14:51;;;;;;;1.45;0.50;;;16.40;99.90;;;;;;5071062;28;20029;-69
2024/04/07 07:17:17;;;;;;;1.08;0.57;;;16.80;99.90;;;;;;5070193;28;20081;-70
2024/04/07 07:19:43;;;;;;;1.00;0.57;;;17.20;99.90;;;;;;5073247;28;20072;-70
2024/04/07 07:22:08;;;;;;;1.52;0.60;;;17.50;99.90;;;;;;5074075;28;20176;-69
2024/04/07 07:24:34;;;;;;;3.90;0.77;;;17.80;99.90;;;;;;5057002;28;20587;-69
2024/04/07 07:27:00;;;;;;;1.10;0.47;;;17.90;99.90;;;;;;5075484;28;20043;-69
2024/04/07 07:29:25;;;;;;;1.48;0.43;;;18.30;99.90;;;;;;5075067;28;20162;-69
2024/04/07 07:31:56;;;;;;;5.70;0.60;;;18.20;99.90;;;;;;5075286;28;20068;-69
2024/04/07 07:34:22;;;;;;;2.58;0.60;;;18.40;99.90;;;;;;5073510;28;20040;-70
2024/04/07 07:36:48;;;;;;;1.38;0.55;;;18.50;99.90;;;;;;5075366;28;20043;-70
2024/04/07 07:39:14;;;;;;;1.95;0.60;;;18.70;99.90;;;;;;5073937;28;20032;-70
2024/04/07 07:41:39;;;;;;;2.70;1.23;;;18.50;99.90;;;;;;5074863;28;20045;-70
2024/04/07 07:44:05;;;;;;;2.35;0.93;;;18.50;99.90;;;;;;5074087;28;20439;-69
2024/04/07 07:46:31;;;;;;;3.15;0.65;;;18.50;99.90;;;;;;5074235;28;20115;-69
2024/04/07 07:48:57;;;;;;;3.55;0.55;;;18.40;99.90;;;;;;5072939;28;20036;-69
2024/04/07 07:51:22;;;;;;;2.85;1.02;;;18.60;99.90;;;;;;5074790;28;20063;-69
2024/04/07 07:53:49;;;;;;;3.60;0.77;;;18.70;99.90;;;;;;5072999;28;20120;-69
2024/04/07 07:56:15;;;;;;;2.58;0.60;;;18.60;99.90;;;;;;5043056;28;20585;-70
2024/04/07 07:58:40;;;;;;;1.65;0.43;;;18.80;99.90;;;;;;5033423;28;20033;-68
2024/04/07 08:01:06;;;;;;;1.67;0.65;;;18.80;99.90;;;;;;5032165;28;20055;-69
2024/04/07 08:03:32;;;;;;;2.45;0.73;;;18.80;99.90;;;;;;5030602;28;20144;-69
2024/04/07 08:05:59;;;;;;;4.88;1.00;;;18.80;99.90;;;;;;5031351;28;20593;-69
2024/04/07 08:08:26;;;;;;;3.70;0.73;;;18.70;99.90;;;;;;5034040;28;20597;-70
2024/04/07 08:10:51;;;;;;;3.05;0.70;;;18.80;99.90;;;;;;5034018;28;20644;-70
2024/04/07 08:13:17;;;;;;;1.73;0.60;;;18.90;99.90;;;;;;5031285;28;20036;-69
2024/04/07 08:15:44;;;;;;;1.42;0.57;;;19.10;99.90;;;;;;5033039;28;20103;-70
2024/04/07 08:18:13;;;;;;;5.32;1.00;;;19.20;99.90;;;;;;5030454;28;20276;-71
2024/04/07 08:20:40;;;;;;;1.98;0.93;;;19.30;99.90;;;;;;5029037;28;20673;-70
2024/04/07 08:23:06;;;;;;;5.43;1.25;;;19.30;99.90;;;;;;5032371;28;20049;-68
2024/04/07 08:25:36;;;;;;;1.98;0.90;;;19.60;99.90;;;;;;5014260;28;20106;-69
2024/04/07 08:28:04;;;;;;;2.80;1.17;;;19.80;99.90;;;;;;5034290;28;20109;-68
2024/04/07 08:30:30;;;;;;;2.92;1.08;;;19.90;99.90;;;;;;5031897;28;20159;-69
2024/04/07 08:32:56;;;;;;;3.75;1.10;;;19.90;99.90;;;;;;5032753;28;20105;-69
2024/04/07 08:35:22;;;;;;;5.57;1.15;;;19.70;99.90;;;;;;5032217;28;20040;-69
2024/04/07 08:37:48;;;;;;;3.85;0.82;;;20.10;99.90;;;;;;5032071;28;20140;-70
2024/04/07 08:40:14;;;;;;;3.05;1.17;;;20.10;99.90;;;;;;5033907;28;20044;-69
2024/04/07 08:42:40;;;;;;;2.33;1.15;;;20.00;99.90;;;;;;5031630;28;20198;-70
2024/04/07 08:45:07;;;;;;;2.67;1.17;;;19.90;99.90;;;;;;5032250;28;20040;-69
2024/04/07 08:47:37;;;;;;;5.65;1.00;;;19.90;99.90;;;;;;5030636;28;20105;-69
2024/04/07 08:50:04;;;;;;;4.05;1.10;;;20.00;99.90;;;;;;5031654;28;20040;-69
2024/04/07 08:52:30;;;;;;;1.75;0.77;;;20.10;99.90;;;;;;5032483;28;20555;-69
2024/04/07 08:54:57;;;;;;;2.47;1.10;;;20.10;99.90;;;;;;5031603;28;20064;-70
2024/04/07 08:57:23;;;;;;;1.75;0.75;;;19.90;99.90;;;;;;5031342;28;20106;-70
2024/04/07 08:59:52;;;;;;;2.90;0.80;;;19.80;99.90;;;;;;5025336;28;20589;-69
2024/04/07 09:02:19;;;;;;;2.30;1.00;;;19.70;99.90;;;;;;5021201;28;20041;-69
2024/04/07 09:04:45;;;;;;;2.85;0.93;;;19.70;99.90;;;;;;5021738;28;20186;-69
2024/04/07 09:07:11;;;;;;;3.25;1.10;;;19.80;99.90;;;;;;5031316;28;20127;-69
2024/04/07 09:09:37;;;;;;;2.25;0.80;;;19.50;99.90;;;;;;5027122;28;20230;-70
2024/04/07 09:12:04;;;;;;;3.42;1.40;;;19.70;99.90;;;;;;5030658;28;20051;-69
2024/04/07 09:14:34;;;;;;;3.25;0.52;;;19.60;99.90;;;;;;5031887;28;20045;-69
2024/04/07 09:17:07;;;;;;;2.72;0.70;;;19.50;99.90;;;;;;5030215;28;20097;-69
2024/04/07 09:19:33;;;;;;;;;;;19.30;99.90;;;;;;5031794;28;20063;-69
2024/04/07 09:21:59;;;;;;;3.95;0.60;;;19.30;99.90;;;;;;5029191;28;20438;-69
2024/04/07 09:24:26;;;;;;;2.53;0.80;;;19.10;99.90;;;;;;5032163;28;20055;-69
2024/04/07 09:26:53;;;;;;;3.65;0.50;;;18.90;99.90;;;;;;5029781;28;20041;-69
2024/04/07 09:29:18;;;;;;;1.40;0.65;;;18.50;99.90;;;;;;5027921;28;20114;-70
2024/04/07 09:31:44;;;;;;;3.25;0.65;;;18.40;99.90;;;;;;5030989;28;20271;-69
2024/04/07 09:34:10;;;;;;;2.88;0.70;;;18.10;99.90;;;;;;5028292;28;20040;-69
2024/04/07 09:36:36;;;;;;;4.80;1.25;;;17.90;99.90;;;;;;5029689;28;20059;-69
2024/04/07 09:39:03;;;;;;;2.00;0.60;;;17.80;99.90;;;;;;5030964;28;20044;-69
2024/04/07 09:41:30;;;;;;;2.65;0.93;;;18.00;99.90;;;;;;5031209;28;20737;-69
2024/04/07 09:43:56;;;;;;;3.63;0.63;;;18.30;99.90;;;;;;5030963;28;20040;-69
2024/04/07 09:46:22;;;;;;;4.40;0.60;;;18.60;99.90;;;;;;5029329;28;20198;-69
2024/04/07 09:48:57;;;;;;;1.70;0.88;;;18.80;99.90;;;;;;5030729;28;20862;-69
2024/04/07 09:51:26;;;;;;;5.68;0.95;;;18.70;99.90;;;;;;5029344;28;20055;-69
2024/04/07 09:54:01;;;;;;;3.85;0.63;;;18.80;99.90;;;;;;5028252;28;20044;-69
2024/04/07 09:56:32;;;;;;;4.28;1.08;;;18.70;99.90;;;;;;5032984;28;20113;-69
2024/04/07 09:59:02;;;;;;;3.08;1.05;;;18.60;99.90;;;;;;5030677;28;20042;-69
2024/04/07 10:01:28;;;;;;;2.67;0.80;;;18.90;99.90;;;;;;5031562;28;20052;-69
2024/04/07 10:03:54;;;;;;;2.22;0.73;;;19.10;99.90;;;;;;5029161;28;20075;-69
2024/04/07 10:06:21;;;;;;;1.85;0.80;;;19.10;99.90;;;;;;5030462;28;20036;-69
2024/04/07 10:08:47;;;;;;;2.13;0.70;;;19.20;99.90;;;;;;5031016;28;20036;-69
2024/04/07 10:11:17;;;;;;;2.80;1.27;;;19.20;99.90;;;;;;5030340;28;20567;-69
2024/04/07 10:13:43;;;;;;;3.75;0.90;;;19.30;99.90;;;;;;5029143;28;20064;-70
2024/04/07 10:16:08;;;;;;;3.63;0.93;;;19.40;99.90;;;;;;5030270;28;20063;-69
2024/04/07 10:18:37;;;;;;;1.55;0.73;;;19.40;99.90;;;;;;5029492;28;20068;-70
2024/04/07 10:21:06;;;;;;;2.30;0.70;;;19.40;99.90;;;;;;5013973;28;20041;-69
2024/04/07 10:23:43;;;;;;;4.05;0.80;;;19.50;99.90;;;;;;5024324;28;20597;-69
2024/04/07 10:26:10;;;;;;;2.55;0.70;;;19.70;99.90;;;;;;5027373;28;20067;-69
2024/04/07 10:28:58;;;;;;;4.40;0.73;;;19.60;99.90;;;;;;5030777;28;20045;-69
2024/04/07 10:31:26;;;;;;;3.45;0.73;;;19.60;99.90;;;;;;5030127;28;20740;-69
2024/04/07 10:33:53;;;;;;;3.78;0.80;;;19.70;99.90;;;;;;5030456;28;20202;-69
2024/04/07 10:36:21;;;;;;;3.33;0.80;;;19.70;99.90;;;;;;5030831;28;20144;-70
2024/04/07 10:38:50;;;;;;;1.73;0.60;;;19.70;99.90;;;;;;5031140;28;20028;-68
2024/04/07 10:41:37;;;;;;;2.47;0.70;;;19.60;99.90;;;;;;5029137;28;20036;-69
2024/04/07 10:44:03;;;;;;;4.00;0.60;;;19.50;99.90;;;;;;5027868;28;20507;-69
2024/04/07 10:46:30;;;;;;;3.30;0.75;;;19.50;99.90;;;;;;5031287;28;20216;-69
2024/04/07 10:49:00;;;;;;;2.60;0.60;;;19.50;99.90;;;;;;5029633;28;20032;-68
2024/04/07 10:51:26;;;;;;;4.40;0.85;;;19.60;99.90;;;;;;5028437;28;20041;-68
2024/04/07 10:54:08;;;;;;;3.00;0.40;;;19.50;99.90;;;;;;5027036;28;20139;-69
2024/04/07 10:56:34;;;;;;;5.20;1.10;;;19.10;99.40;;;;;;5027995;28;20032;-69
2024/04/07 10:59:01;;;;;;;3.47;0.73;;;19.00;99.80;;;;;;5028369;28;20621;-69
2024/04/07 11:01:28;;;;;;;3.42;0.70;;;18.80;99.90;;;;;;5030026;28;20051;-69
2024/04/07 11:03:58;;;;;;;2.88;0.47;;;18.70;99.90;;;;;;5028548;28;20432;-69
2024/04/07 11:06:28;;;;;;;2.22;0.60;;;18.60;99.90;;;;;;5014796;28;20199;-69
2024/04/07 11:08:54;;;;;;;2.30;0.95;;;18.70;99.90;;;;;;5028397;28;20922;-69
2024/04/07 11:11:23;;;;;;;1.23;0.60;;;18.90;99.90;;;;;;5030480;28;20686;-69
2024/04/07 11:13:49;;;;;;;4.13;0.57;;;19.00;99.90;;;;;;5027430;28;20214;-69
2024/04/07 11:16:15;;;;;;;3.30;0.75;;;18.90;99.90;;;;;;5029182;28;20139;-69
2024/04/07 11:18:42;;;;;;;1.80;0.55;;;18.80;99.90;;;;;;5029322;28;20218;-69
2024/04/07 11:21:08;;;;;;;3.53;1.38;;;18.80;96.30;;;;;;5029638;28;20044;-69
2024/04/07 11:23:34;;;;;;;2.28;0.52;;;18.90;99.10;;;;;;5029247;28;20144;-68
2024/04/07 11:26:00;;;;;;;2.47;1.00;;;18.90;98.30;;;;;;5027087;28;20585;-68
2024/04/07 11:28:26;;;;;;;3.92;0.70;;;19.00;96.40;;;;;;5027101;28;20072;-69
2024/04/07 11:30:56;;;;;;;3.20;0.75;;;19.10;96.60;;;;;;5030415;28;20598;-69
2024/04/07 11:33:24;;;;;;;3.70;1.05;;;19.20;99.90;;;;;;5026754;28;20037;-68
2024/04/07 11:35:50;;;;;;;3.47;0.60;;;19.30;98.50;;;;;;5010846;28;20041;-69
2024/04/07 11:38:15;;;;;;;4.18;0.70;;;19.20;96.90;;;;;;5027666;28;20149;-68
2024/04/07 11:40:41;;;;;;;2.38;0.65;;;19.30;93.30;;;;;;5027417;28;20181;-68
2024/04/07 11:43:08;;;;;;;3.65;0.60;;;19.30;91.00;;;;;;5029189;28;20036;-69
2024/04/07 11:45:34;;;;;;;1.88;0.60;;;19.20;85.40;;;;;;5030283;28;20559;-68
2024/04/07 11:48:00;;;;;;;3.42;0.60;;;19.20;85.40;;;;;;5027707;28;20051;-69
2024/04/07 11:50:26;;;;;;;3.75;1.30;;;19.20;87.50;;;;;;5029291;28;20040;-68
2024/04/07 11:52:52;;;;;;;1.50;0.57;;;19.10;81.40;;;;;;5022235;22;20329;-70
2024/04/07 11:55:18;;;;;;;5.28;0.70;;;19.10;80.50;;;;;;4924524;28;20344;-73
2024/04/07 11:57:44;;;;;;;1.60;0.50;;;19.10;84.90;;;;;;4920042;28;20203;-70
2024/04/07 12:00:11;;;;;;;2.97;0.80;;;19.10;90.80;;;;;;4911458;28;20807;-71
2024/04/07 12:02:37;;;;;;;3.35;0.90;;;19.20;92.10;;;;;;4917429;28;20404;-70
2024/04/07 12:05:04;;;;;;;2.53;0.65;;;19.20;87.30;;;;;;4927513;28;20503;-71
2024/04/07 12:07:30;;;;;;;1.92;0.65;;;19.20;88.00;;;;;;4930143;28;20558;-70
2024/04/07 12:09:57;;;;;;;3.08;0.85;;;19.30;84.20;;;;;;4915389;28;20656;-70
2024/04/07 12:12:26;;;;;;;1.80;0.80;;;19.20;86.00;;;;;;4933464;28;20364;-70
2024/04/07 12:14:52;;;;;;;2.28;0.73;;;19.30;87.60;;;;;;4920976;28;20377;-70
2024/04/07 12:17:19;;;;;;;3.60;0.82;;;19.40;91.00;;;;;;4962762;28;20047;-71
2024/04/07 12:19:45;;;;;;;3.40;0.60;;;19.50;89.90;;;;;;5009412;28;20033;-70
2024/04/07 12:22:18;;;;;;;2.47;0.45;;;19.50;86.40;;;;;;5009347;28;20119;-71
2024/04/07 12:24:44;;;;;;;2.72;0.50;;;19.40;85.00;;;;;;5012635;28;20036;-70
2024/04/07 12:27:10;;;;;;;4.40;0.63;;;19.30;76.60;;;;;;5011867;28;20134;-71
2024/04/07 12:29:37;;;;;;;4.25;1.25;;;19.40;84.60;;;;;;5012874;28;20774;-71
2024/04/07 12:32:03;;;;;;;3.38;0.50;;;19.40;88.60;;;;;;4993816;28;20614;-71
2024/04/07 12:34:29;;;;;;;3.35;0.88;;;19.50;88.20;;;;;;5010850;28;20233;-70
2024/04/07 12:36:55;;;;;;;4.93;0.80;;;19.50;87.00;;;;;;5012647;28;20368;-70
2024/04/07 12:39:21;;;;;;;2.72;0.70;;;19.50;85.80;;;;;;5014124;28;20037;-71
2024/04/07 12:41:49;;;;;;;2.90;0.70;;;19.40;84.90;;;;;;5012423;28;20080;-70
2024/04/07 12:44:18;;;;;;;1.95;0.57;;;19.40;88.60;;;;;;5010926;28;20563;-70
2024/04/07 12:46:44;;;;;;;1.63;0.50;;;19.40;84.50;;;;;;5014315;28;20045;-71